Terminal Aerodrome Forecast
Issued by NWS Pittsburgh, PA

Current Version | Previous Version | Graphics & Text | Print | Product List | Glossary On
Versions: 1 2 3 4 5 6 7 8 9 10 11 12 13 14 15 16 17 18 19 20 21 22 23 24 25 26 27 28
464
FTUS41 KPBZ 190100 AAA
TAFPIT
TAF AMD
KPIT 190100Z 1901/2006 21015G30KT 4SM RA OVC025
     FM190600 28015G35KT 5SM -RA OVC008
     FM191000 28014G28KT P6SM VCSH OVC015
     FM191800 30012G25KT P6SM BKN025
     FM200200 28011G20KT P6SM BKN035=

USA.gov is the U.S. government's official web portal to all federal, state and local government web resources and services.